Time;durP1;ratioP1;P1;durP2;ratioP2;P2;SDS_P1;SDS_P2;PMS_P1;PMS_P2;Temp;Humidity;BMP_temperature;BMP_pressure;BME280_temperature;BME280_humidity;BME280_pressure;Samples;Min_cycle;Max_cycle;Signal;HPM_P1;HPM_P2
2021/10/19 00:02:06;;;;;;;30.13;22.47;;;6.60;99.90;;;;;;5052999;28;20811;-66
2021/10/19 00:04:33;;;;;;;31.30;22.80;;;6.40;99.90;;;;;;5053054;28;20468;-66
2021/10/19 00:06:59;;;;;;;30.77;22.47;;;6.40;99.90;;;;;;5052747;28;20443;-66
2021/10/19 00:09:28;;;;;;;35.00;24.50;;;6.30;99.90;;;;;;5053010;28;20488;-66
2021/10/19 00:11:54;;;;;;;28.07;21.10;;;6.30;99.90;;;;;;5051951;28;20527;-66
2021/10/19 00:14:21;;;;;;;29.70;22.43;;;6.40;99.90;;;;;;5052691;28;20952;-66
2021/10/19 00:16:48;;;;;;;33.13;24.27;;;6.30;99.90;;;;;;5052556;28;20546;-66
2021/10/19 00:19:15;;;;;;;32.50;23.90;;;6.30;99.90;;;;;;5052987;28;20447;-66
2021/10/19 00:21:42;;;;;;;29.27;22.37;;;6.30;99.90;;;;;;5052277;28;20447;-66
2021/10/19 00:24:09;;;;;;;31.53;23.87;;;6.40;99.90;;;;;;5052517;28;20472;-66
2021/10/19 00:26:37;;;;;;;29.47;21.87;;;6.40;99.90;;;;;;5052226;28;20451;-66
2021/10/19 00:29:03;;;;;;;29.70;22.37;;;6.30;99.90;;;;;;5052546;28;20969;-66
2021/10/19 00:31:30;;;;;;;34.07;23.07;;;6.20;99.90;;;;;;5052781;28;20459;-66
2021/10/19 00:33:57;;;;;;;28.60;20.50;;;6.30;99.90;;;;;;5052258;28;20463;-66
2021/10/19 00:36:24;;;;;;;32.17;22.07;;;6.20;99.90;;;;;;5052302;28;20457;-66
2021/10/19 00:38:51;;;;;;;31.23;23.63;;;6.20;99.90;;;;;;5052284;28;20458;-67
2021/10/19 00:41:18;;;;;;;31.83;23.40;;;6.20;99.90;;;;;;5052287;28;20436;-66
2021/10/19 00:43:47;;;;;;;37.67;24.20;;;6.30;99.90;;;;;;5051841;28;20482;-66
2021/10/19 00:46:14;;;;;;;30.03;24.00;;;6.30;99.90;;;;;;5052288;28;20450;-66
2021/10/19 00:48:42;;;;;;;31.20;24.20;;;6.30;99.90;;;;;;5052009;28;20454;-66
2021/10/19 00:51:10;;;;;;;31.87;22.83;;;6.30;99.90;;;;;;5051980;28;20490;-66
2021/10/19 00:53:37;;;;;;;27.57;20.77;;;6.20;99.90;;;;;;5051948;28;20467;-66
2021/10/19 00:56:07;;;;;;;32.43;23.30;;;6.10;99.90;;;;;;5051989;28;20450;-66
2021/10/19 00:58:34;;;;;;;24.27;20.33;;;6.10;99.90;;;;;;5051945;28;20439;-66
2021/10/19 01:01:02;;;;;;;31.90;22.07;;;6.00;99.90;;;;;;5051902;28;20829;-66
2021/10/19 01:03:29;;;;;;;33.10;23.80;;;5.90;99.90;;;;;;5051894;28;20546;-66
2021/10/19 01:05:56;;;;;;;34.40;25.13;;;5.90;99.90;;;;;;5051680;28;21159;-66
2021/10/19 01:08:23;;;;;;;33.83;24.00;;;6.00;99.90;;;;;;5051308;28;20440;-66
2021/10/19 01:10:50;;;;;;;34.03;24.10;;;6.10;99.90;;;;;;5051367;28;20487;-66
2021/10/19 01:13:17;;;;;;;33.37;22.43;;;6.20;99.90;;;;;;5051831;28;20452;-66
2021/10/19 01:15:45;;;;;;;29.97;22.20;;;6.10;99.90;;;;;;5051758;28;20444;-66
2021/10/19 01:18:15;;;;;;;33.27;21.87;;;6.00;99.90;;;;;;5051241;28;20444;-66
2021/10/19 01:20:44;;;;;;;32.97;22.23;;;6.10;99.90;;;;;;5051476;28;20826;-66
2021/10/19 01:23:11;;;;;;;30.87;22.73;;;6.10;99.90;;;;;;5050312;28;20968;-66
2021/10/19 01:25:38;;;;;;;29.30;20.10;;;6.20;99.90;;;;;;5051517;28;20959;-66
2021/10/19 01:28:07;;;;;;;27.70;20.27;;;6.20;99.90;;;;;;5050966;28;20459;-66
2021/10/19 01:30:41;;;;;;;29.60;20.87;;;6.10;99.90;;;;;;5051231;28;20479;-66
2021/10/19 01:33:08;;;;;;;28.17;19.63;;;6.10;99.90;;;;;;5051261;28;20450;-66
2021/10/19 01:35:36;;;;;;;26.90;19.60;;;6.10;99.90;;;;;;5051577;28;20824;-66
2021/10/19 01:38:06;;;;;;;27.20;20.20;;;6.20;99.90;;;;;;5050944;28;20964;-66
2021/10/19 01:40:33;;;;;;;28.37;20.80;;;6.30;99.90;;;;;;5051314;28;20467;-66
2021/10/19 01:43:00;;;;;;;33.00;20.93;;;6.30;99.90;;;;;;5050869;28;20456;-66
2021/10/19 01:45:27;;;;;;;32.70;21.63;;;6.30;99.90;;;;;;5050930;28;20555;-67
2021/10/19 01:47:54;;;;;;;31.37;22.10;;;6.40;99.90;;;;;;5050441;28;20440;-66
2021/10/19 01:50:21;;;;;;;27.53;20.93;;;6.50;99.90;;;;;;5050553;28;20483;-66
2021/10/19 01:52:48;;;;;;;31.17;20.77;;;6.50;99.90;;;;;;5050791;28;20834;-66
2021/10/19 01:55:16;;;;;;;26.80;20.53;;;6.50;99.90;;;;;;5050569;28;20468;-66
2021/10/19 01:57:43;;;;;;;25.80;20.03;;;6.60;99.90;;;;;;5050654;28;20454;-66
2021/10/19 02:00:11;;;;;;;27.20;20.37;;;6.50;99.90;;;;;;5050566;28;20450;-66
2021/10/19 02:02:39;;;;;;;30.40;23.30;;;6.50;99.90;;;;;;5050637;28;20452;-66
2021/10/19 02:05:07;;;;;;;28.73;21.23;;;6.50;99.90;;;;;;5050251;28;20468;-66
2021/10/19 02:07:34;;;;;;;30.63;22.13;;;6.40;99.90;;;;;;5050186;28;20455;-66
2021/10/19 02:10:00;;;;;;;27.07;19.73;;;6.40;99.90;;;;;;5050392;28;20510;-66
2021/10/19 02:12:28;;;;;;;29.90;19.87;;;6.50;99.90;;;;;;5050716;28;20455;-66
2021/10/19 02:14:55;;;;;;;26.37;20.77;;;6.50;99.90;;;;;;5050325;28;20995;-66
2021/10/19 02:17:22;;;;;;;28.80;21.23;;;6.60;99.90;;;;;;5050291;28;20436;-66
2021/10/19 02:19:49;;;;;;;28.17;20.20;;;6.60;99.90;;;;;;5050576;28;20526;-66
2021/10/19 02:22:16;;;;;;;29.13;21.10;;;6.70;99.90;;;;;;5050893;28;20474;-66
2021/10/19 02:24:43;;;;;;;28.03;22.13;;;6.70;99.90;;;;;;5050349;28;20550;-66
2021/10/19 02:27:10;;;;;;;27.90;21.33;;;6.90;99.90;;;;;;5049998;28;20448;-66
2021/10/19 02:29:38;;;;;;;28.83;21.23;;;6.90;99.90;;;;;;5050281;28;20445;-66
2021/10/19 02:32:05;;;;;;;24.93;19.00;;;7.00;99.90;;;;;;5050101;28;20455;-66
2021/10/19 02:34:32;;;;;;;24.77;18.73;;;7.00;99.90;;;;;;5049860;28;20467;-66
2021/10/19 02:36:59;;;;;;;25.70;17.80;;;7.00;99.90;;;;;;5049743;28;20444;-66
2021/10/19 02:39:26;;;;;;;28.37;19.90;;;7.00;99.90;;;;;;5050158;28;20454;-66
2021/10/19 02:41:53;;;;;;;28.53;20.30;;;7.00;99.90;;;;;;5049838;28;20897;-66
2021/10/19 02:44:19;;;;;;;28.50;20.10;;;7.10;99.90;;;;;;5049711;28;20479;-66
2021/10/19 02:46:49;;;;;;;31.80;22.93;;;7.20;99.90;;;;;;5049567;28;20532;-66
2021/10/19 02:49:15;;;;;;;32.53;22.70;;;7.30;99.90;;;;;;5049914;28;20448;-66
2021/10/19 02:51:42;;;;;;;29.83;22.20;;;7.40;99.90;;;;;;5049751;28;20475;-66
2021/10/19 02:54:10;;;;;;;28.60;21.97;;;7.40;99.90;;;;;;5049738;28;20456;-66
2021/10/19 02:56:37;;;;;;;30.07;21.57;;;7.50;99.90;;;;;;5049503;28;20494;-66
2021/10/19 02:59:04;;;;;;;25.73;20.93;;;7.50;99.90;;;;;;5049506;28;20444;-66
2021/10/19 03:01:31;;;;;;;27.20;20.37;;;7.50;99.90;;;;;;5049608;28;20451;-66
2021/10/19 03:03:59;;;;;;;25.30;19.87;;;7.60;99.90;;;;;;5049440;28;20472;-66
2021/10/19 03:06:26;;;;;;;24.83;19.60;;;7.60;99.90;;;;;;5049342;28;20458;-66
2021/10/19 03:08:54;;;;;;;25.83;19.00;;;7.60;99.90;;;;;;5049534;28;20531;-66
2021/10/19 03:11:21;;;;;;;24.00;18.63;;;7.60;99.90;;;;;;5049449;28;20488;-66
2021/10/19 03:13:48;;;;;;;20.90;18.20;;;7.60;99.90;;;;;;5049495;28;20466;-66
2021/10/19 03:16:15;;;;;;;24.20;19.10;;;7.50;99.90;;;;;;5049376;28;20448;-66
2021/10/19 03:18:42;;;;;;;25.13;18.47;;;7.50;99.90;;;;;;5049440;28;20447;-66
2021/10/19 03:21:10;;;;;;;27.70;19.90;;;7.50;99.90;;;;;;5049734;28;20447;-66
2021/10/19 03:23:37;;;;;;;28.23;19.20;;;7.60;99.90;;;;;;5049362;28;20468;-66
2021/10/19 03:26:04;;;;;;;22.80;17.67;;;7.60;99.90;;;;;;5049277;28;20436;-66
2021/10/19 03:28:31;;;;;;;23.77;19.63;;;7.70;99.90;;;;;;5049399;28;20981;-66
2021/10/19 03:30:58;;;;;;;26.83;20.47;;;7.70;99.90;;;;;;5049378;28;20475;-66
2021/10/19 03:33:25;;;;;;;27.57;20.47;;;7.70;99.90;;;;;;5051968;28;20486;-67
2021/10/19 03:35:52;;;;;;;24.20;17.90;;;7.70;99.90;;;;;;5049732;28;20821;-67
2021/10/19 03:38:20;;;;;;;25.33;17.93;;;7.70;99.90;;;;;;5049319;28;20455;-66
2021/10/19 03:40:47;;;;;;;25.00;19.17;;;7.70;99.90;;;;;;5049041;28;20440;-66
2021/10/19 03:43:14;;;;;;;22.13;17.40;;;7.80;99.90;;;;;;5049672;28;20466;-66
2021/10/19 03:45:41;;;;;;;25.03;19.40;;;7.80;99.90;;;;;;5049405;28;20470;-66
2021/10/19 03:48:08;;;;;;;21.60;17.47;;;7.70;99.90;;;;;;5052330;28;20574;-66
2021/10/19 03:50:35;;;;;;;22.07;17.80;;;7.70;99.90;;;;;;5053234;28;20471;-66
2021/10/19 03:53:02;;;;;;;23.53;19.33;;;7.60;99.90;;;;;;5052942;28;20443;-66
2021/10/19 03:55:30;;;;;;;26.30;18.23;;;7.60;99.90;;;;;;5052980;28;20454;-66
2021/10/19 03:57:57;;;;;;;25.17;19.60;;;7.60;99.90;;;;;;5052625;28;20446;-67
2021/10/19 04:00:23;;;;;;;20.97;17.50;;;7.60;99.90;;;;;;5053029;28;20527;-66
2021/10/19 04:02:50;;;;;;;24.70;18.70;;;7.50;99.90;;;;;;5052939;28;20440;-66
2021/10/19 04:05:17;;;;;;;26.33;18.87;;;7.60;99.90;;;;;;5052853;28;20466;-66
2021/10/19 04:07:45;;;;;;;21.70;19.23;;;7.60;99.90;;;;;;5052403;28;20454;-66
2021/10/19 04:10:13;;;;;;;21.97;17.50;;;7.60;99.90;;;;;;5053204;28;20454;-67
2021/10/19 04:12:41;;;;;;;22.63;16.27;;;7.60;99.90;;;;;;5052706;28;20448;-67
2021/10/19 04:15:09;;;;;;;21.17;17.20;;;7.70;99.90;;;;;;5052879;28;20460;-66
2021/10/19 04:17:36;;;;;;;23.93;18.50;;;7.70;99.90;;;;;;5052616;28;20454;-66
2021/10/19 04:20:03;;;;;;;25.87;18.73;;;7.60;99.90;;;;;;5052492;28;20441;-66
2021/10/19 04:22:30;;;;;;;26.83;18.23;;;7.60;99.90;;;;;;5052555;28;21020;-66
2021/10/19 04:24:56;;;;;;;21.27;16.93;;;7.70;99.90;;;;;;5052471;28;20472;-66
2021/10/19 04:27:23;;;;;;;21.40;17.80;;;7.80;99.90;;;;;;5052185;28;20444;-66
2021/10/19 04:29:51;;;;;;;22.23;17.90;;;7.80;99.90;;;;;;5052177;28;20448;-68
2021/10/19 04:32:18;;;;;;;20.83;17.83;;;7.90;99.90;;;;;;5052379;28;20486;-70
2021/10/19 04:34:45;;;;;;;22.10;17.93;;;7.90;99.90;;;;;;5051964;28;20470;-67
2021/10/19 04:37:12;;;;;;;20.47;17.40;;;8.00;99.90;;;;;;5052087;28;20478;-67
2021/10/19 04:39:39;;;;;;;19.90;16.47;;;8.00;99.90;;;;;;5052253;28;20459;-67
2021/10/19 04:42:07;;;;;;;22.83;17.70;;;8.00;99.90;;;;;;5046506;28;20444;-69
2021/10/19 04:44:34;;;;;;;19.47;16.87;;;8.00;99.90;;;;;;5038944;28;20481;-67
2021/10/19 04:47:02;;;;;;;20.70;16.97;;;8.00;99.90;;;;;;5042831;28;20452;-67
2021/10/19 04:49:29;;;;;;;21.17;16.90;;;8.10;99.90;;;;;;5046907;28;20452;-67
2021/10/19 04:51:55;;;;;;;24.30;18.17;;;8.10;99.90;;;;;;5051579;28;20487;-66
2021/10/19 04:54:22;;;;;;;21.07;16.50;;;8.10;99.90;;;;;;5048660;28;20452;-66
2021/10/19 04:56:49;;;;;;;19.30;17.27;;;8.00;99.90;;;;;;5045925;28;20456;-67
2021/10/19 04:59:16;;;;;;;19.40;16.00;;;8.00;99.90;;;;;;5049542;28;20475;-65
2021/10/19 05:01:43;;;;;;;20.10;16.30;;;8.00;99.90;;;;;;5036055;28;20449;-65
2021/10/19 05:04:15;;;;;;;20.80;15.93;;;8.00;99.90;;;;;;5045025;28;20468;-65
2021/10/19 05:06:42;;;;;;;21.40;16.23;;;8.00;99.90;;;;;;5049524;28;20444;-67
2021/10/19 05:09:09;;;;;;;21.30;16.50;;;8.10;99.90;;;;;;5039833;28;21300;-65
2021/10/19 05:11:35;;;;;;;25.23;17.70;;;8.20;99.90;;;;;;5040343;28;20480;-66
2021/10/19 05:14:02;;;;;;;18.53;15.30;;;8.20;99.90;;;;;;5038444;28;21319;-67
2021/10/19 05:16:29;;;;;;;23.00;17.20;;;8.30;99.90;;;;;;5046068;28;20452;-65
2021/10/19 05:18:56;;;;;;;17.43;15.60;;;8.20;99.90;;;;;;5049303;28;20447;-65
2021/10/19 05:21:24;;;;;;;18.07;15.60;;;8.20;99.90;;;;;;5039684;28;20436;-66
2021/10/19 05:23:51;;;;;;;21.50;16.67;;;8.30;99.90;;;;;;5048763;28;20476;-65
2021/10/19 05:26:18;;;;;;;20.30;15.77;;;8.30;99.90;;;;;;5049596;28;20448;-66
2021/10/19 05:28:45;;;;;;;20.63;16.00;;;8.30;99.90;;;;;;5048910;28;20829;-65
2021/10/19 05:31:12;;;;;;;19.43;17.33;;;8.30;99.90;;;;;;5050653;28;20563;-65
2021/10/19 05:33:39;;;;;;;17.43;14.87;;;8.30;99.90;;;;;;5051063;28;20482;-65
2021/10/19 05:36:05;;;;;;;20.83;15.77;;;8.30;99.90;;;;;;5051004;28;20452;-64
2021/10/19 05:38:34;;;;;;;23.00;17.70;;;8.30;99.90;;;;;;5050495;28;20937;-65
2021/10/19 05:41:01;;;;;;;20.80;16.20;;;8.40;99.90;;;;;;5049350;28;20440;-65
2021/10/19 05:43:27;;;;;;;18.23;16.30;;;8.40;99.90;;;;;;5049604;28;20862;-64
2021/10/19 05:45:54;;;;;;;19.70;17.53;;;8.50;99.90;;;;;;5050699;28;20497;-65
2021/10/19 05:48:21;;;;;;;17.93;16.00;;;8.60;99.90;;;;;;5050600;28;20453;-66
2021/10/19 05:50:48;;;;;;;20.70;17.50;;;8.60;99.90;;;;;;5050674;28;20451;-65
2021/10/19 05:53:15;;;;;;;22.80;16.77;;;8.70;99.90;;;;;;5050790;28;20456;-65
2021/10/19 05:55:43;;;;;;;18.97;16.13;;;8.70;99.90;;;;;;5050467;28;20452;-65
2021/10/19 05:58:10;;;;;;;18.30;15.60;;;8.70;99.90;;;;;;5050434;28;20442;-65
2021/10/19 06:00:36;;;;;;;18.50;16.50;;;8.70;99.90;;;;;;5050484;28;20452;-65
2021/10/19 06:03:03;;;;;;;23.27;17.70;;;8.80;99.90;;;;;;5050573;28;20444;-65
2021/10/19 06:05:30;;;;;;;23.50;19.20;;;8.80;99.90;;;;;;5050672;28;20451;-64
2021/10/19 06:07:57;;;;;;;19.50;17.47;;;8.80;99.90;;;;;;5050244;28;20443;-65
2021/10/19 06:10:24;;;;;;;20.30;17.90;;;8.70;99.90;;;;;;5049626;28;20451;-65
2021/10/19 06:12:52;;;;;;;20.93;16.50;;;8.60;99.90;;;;;;5050351;28;20480;-65
2021/10/19 06:15:20;;;;;;;21.43;15.90;;;8.70;99.90;;;;;;5050104;28;20468;-65
2021/10/19 06:17:48;;;;;;;22.37;16.57;;;8.80;99.90;;;;;;5049743;28;20448;-65
2021/10/19 06:20:15;;;;;;;18.73;16.30;;;8.90;99.90;;;;;;5050099;28;20451;-65
2021/10/19 06:22:42;;;;;;;24.50;17.47;;;8.90;99.90;;;;;;5049945;28;20444;-65
2021/10/19 06:25:09;;;;;;;22.43;18.10;;;8.90;99.90;;;;;;5049904;28;20476;-65
2021/10/19 06:27:36;;;;;;;19.23;16.47;;;9.00;99.90;;;;;;5049667;28;20436;-65
2021/10/19 06:30:05;;;;;;;21.93;17.00;;;8.90;99.90;;;;;;5050043;28;20455;-65
2021/10/19 06:32:32;;;;;;;20.00;16.90;;;9.00;99.90;;;;;;5049509;28;21014;-65
2021/10/19 06:34:59;;;;;;;21.83;17.60;;;9.00;99.90;;;;;;5049809;28;20460;-65
2021/10/19 06:37:25;;;;;;;22.80;17.60;;;9.20;99.90;;;;;;5049328;28;20444;-65
2021/10/19 06:39:52;;;;;;;19.83;15.93;;;9.30;99.90;;;;;;5050016;28;20893;-65
2021/10/19 06:42:19;;;;;;;16.70;14.73;;;9.40;99.90;;;;;;5049730;28;20440;-66
2021/10/19 06:44:46;;;;;;;19.03;16.60;;;9.40;99.90;;;;;;5049787;28;20471;-65
2021/10/19 06:47:14;;;;;;;18.50;16.00;;;9.50;99.90;;;;;;5049594;28;20451;-65
2021/10/19 06:49:43;;;;;;;22.00;17.27;;;9.60;99.90;;;;;;5049457;28;20962;-65
2021/10/19 06:52:10;;;;;;;22.47;18.10;;;9.50;99.90;;;;;;5049362;28;20487;-65
2021/10/19 06:54:36;;;;;;;27.63;21.03;;;9.50;99.90;;;;;;5049644;28;20846;-65
2021/10/19 06:57:03;;;;;;;28.57;20.93;;;9.40;99.90;;;;;;5049367;28;20448;-65
2021/10/19 06:59:30;;;;;;;30.17;22.30;;;9.40;99.90;;;;;;5049516;28;20444;-64
2021/10/19 07:01:57;;;;;;;24.57;20.20;;;9.40;99.90;;;;;;5049653;28;20439;-65
2021/10/19 07:04:25;;;;;;;21.47;18.67;;;9.50;99.90;;;;;;5049279;28;20471;-65
2021/10/19 07:06:52;;;;;;;23.20;17.07;;;9.60;99.90;;;;;;5049151;28;20454;-65
2021/10/19 07:09:19;;;;;;;24.33;17.67;;;9.70;99.90;;;;;;5049407;28;20463;-65
2021/10/19 07:11:45;;;;;;;18.17;16.20;;;9.80;99.90;;;;;;5049589;28;20479;-65
2021/10/19 07:14:12;;;;;;;20.93;16.97;;;9.80;99.90;;;;;;5049346;28;20460;-65
2021/10/19 07:16:39;;;;;;;18.00;15.60;;;9.90;99.90;;;;;;5049284;28;20455;-65
2021/10/19 07:19:09;;;;;;;19.70;14.90;;;10.00;99.90;;;;;;5049363;28;21043;-65
2021/10/19 07:21:37;;;;;;;20.20;15.50;;;10.10;99.90;;;;;;5051986;28;20435;-65
2021/10/19 07:24:04;;;;;;;20.63;15.03;;;10.20;99.90;;;;;;5053355;28;20470;-65
2021/10/19 07:26:31;;;;;;;16.20;14.13;;;10.30;99.90;;;;;;5052901;28;20534;-65
2021/10/19 07:28:58;;;;;;;17.23;14.33;;;10.40;99.90;;;;;;5053233;28;20531;-65
2021/10/19 07:31:25;;;;;;;18.60;15.93;;;10.30;99.90;;;;;;5052974;28;20440;-65
2021/10/19 07:33:52;;;;;;;18.03;13.60;;;10.30;99.90;;;;;;5053605;28;20471;-66
2021/10/19 07:36:19;;;;;;;16.83;15.00;;;10.40;99.90;;;;;;5053077;28;20439;-65
2021/10/19 07:38:48;;;;;;;15.53;13.93;;;10.50;99.90;;;;;;5053304;28;20950;-65
2021/10/19 07:41:15;;;;;;;17.80;14.93;;;10.50;99.90;;;;;;5053017;28;20447;-65
2021/10/19 07:43:42;;;;;;;15.10;13.43;;;10.70;99.90;;;;;;5052997;28;20481;-66
2021/10/19 07:46:09;;;;;;;18.60;14.03;;;10.70;99.90;;;;;;5053059;28;20447;-65
2021/10/19 07:48:36;;;;;;;16.97;15.30;;;10.70;99.90;;;;;;5052708;28;20455;-65
2021/10/19 07:51:03;;;;;;;17.73;15.87;;;10.70;99.90;;;;;;5053108;28;20444;-65
2021/10/19 07:53:30;;;;;;;17.80;15.33;;;10.70;99.90;;;;;;5052787;28;20479;-65
2021/10/19 07:55:59;;;;;;;16.20;13.83;;;10.90;99.90;;;;;;5052652;28;20530;-65
2021/10/19 07:58:26;;;;;;;18.50;16.17;;;10.80;99.90;;;;;;5052431;28;20448;-65
2021/10/19 08:00:54;;;;;;;17.87;14.77;;;10.80;99.90;;;;;;5052522;28;20452;-65
2021/10/19 08:03:21;;;;;;;16.80;14.93;;;10.90;99.90;;;;;;5052219;28;20490;-65
2021/10/19 08:05:48;;;;;;;22.53;14.70;;;11.00;99.90;;;;;;5052813;28;20448;-65
2021/10/19 08:08:16;;;;;;;17.23;15.37;;;11.10;99.90;;;;;;5052168;28;20973;-65
2021/10/19 08:10:45;;;;;;;18.03;15.17;;;11.30;99.90;;;;;;5052486;28;20542;-65
2021/10/19 08:13:14;;;;;;;18.47;14.43;;;11.40;99.90;;;;;;5052074;28;20486;-65
2021/10/19 08:15:41;;;;;;;17.43;14.63;;;11.60;99.90;;;;;;5052345;28;20458;-65
2021/10/19 08:18:09;;;;;;;17.30;14.80;;;11.60;99.90;;;;;;5051936;28;20454;-65
2021/10/19 08:20:36;;;;;;;19.40;15.30;;;11.70;99.90;;;;;;5051947;28;20444;-65
2021/10/19 08:23:03;;;;;;;17.10;15.30;;;11.80;99.90;;;;;;5052362;28;20813;-66
2021/10/19 08:25:30;;;;;;;15.13;13.60;;;11.90;99.90;;;;;;5052458;28;20543;-65
2021/10/19 08:27:57;;;;;;;19.30;14.67;;;12.00;99.90;;;;;;5052165;28;20463;-65
2021/10/19 08:30:26;;;;;;;16.27;13.30;;;12.20;99.90;;;;;;5052653;28;20446;-64
2021/10/19 08:32:53;;;;;;;15.63;14.03;;;12.30;99.90;;;;;;5051938;28;20479;-65
2021/10/19 08:35:23;;;;;;;16.00;14.40;;;12.40;99.90;;;;;;5052018;28;20559;-64
2021/10/19 08:37:50;;;;;;;16.10;14.40;;;12.40;99.90;;;;;;5051935;28;20448;-64
2021/10/19 08:40:17;;;;;;;19.40;14.70;;;12.30;99.90;;;;;;5051883;28;20456;-65
2021/10/19 08:42:45;;;;;;;16.60;14.80;;;12.20;99.90;;;;;;5052149;28;20531;-65
2021/10/19 08:45:13;;;;;;;20.10;15.63;;;12.10;99.90;;;;;;5052016;28;20554;-65
2021/10/19 08:47:43;;;;;;;16.90;15.20;;;11.90;99.90;;;;;;5051536;28;20452;-64
2021/10/19 08:50:11;;;;;;;17.33;15.43;;;11.90;99.90;;;;;;5051557;28;20458;-65
2021/10/19 08:52:38;;;;;;;22.33;16.37;;;11.80;99.90;;;;;;5051685;28;20475;-65
2021/10/19 08:55:06;;;;;;;17.63;15.60;;;11.80;99.90;;;;;;5051365;28;20834;-65
2021/10/19 08:57:33;;;;;;;18.67;14.07;;;11.90;99.90;;;;;;5051587;28;20444;-65
2021/10/19 09:00:00;;;;;;;16.43;13.70;;;11.90;99.90;;;;;;5051409;28;20448;-65
2021/10/19 09:02:38;;;;;;;16.37;14.67;;;11.90;99.90;;;;;;5051549;28;20450;-64
2021/10/19 09:05:08;;;;;;;15.00;13.50;;;11.90;99.90;;;;;;5051370;28;20466;-65
2021/10/19 09:07:35;;;;;;;17.30;14.23;;;11.80;99.90;;;;;;5050984;28;20946;-64
2021/10/19 09:10:02;;;;;;;15.63;12.70;;;11.80;99.90;;;;;;5051633;28;20547;-65
2021/10/19 09:12:29;;;;;;;14.43;12.80;;;11.90;99.90;;;;;;5051252;28;20475;-65
2021/10/19 09:15:05;;;;;;;13.40;12.00;;;11.90;99.90;;;;;;5051371;28;20894;-64
2021/10/19 09:17:38;;;;;;;14.70;12.97;;;11.90;99.90;;;;;;5051227;28;20972;-64
2021/10/19 09:20:15;;;;;;;13.63;12.23;;;11.90;99.90;;;;;;5051718;28;20890;-64
2021/10/19 09:22:55;;;;;;;17.17;13.30;;;11.90;99.90;;;;;;5051748;28;20538;-64
2021/10/19 09:25:27;;;;;;;14.43;12.90;;;11.90;99.90;;;;;;5052414;28;20499;-64
2021/10/19 09:27:55;;;;;;;17.00;10.43;;;12.00;99.90;;;;;;5051242;28;20495;-66
2021/10/19 09:30:33;;;;;;;14.10;11.73;;;12.00;99.90;;;;;;5050918;28;20452;-65
2021/10/19 09:33:00;;;;;;;14.63;10.90;;;12.10;99.90;;;;;;5050856;28;20495;-66
2021/10/19 09:35:29;;;;;;;14.47;12.97;;;12.10;99.90;;;;;;5051406;28;20840;-66
2021/10/19 09:38:01;;;;;;;12.77;11.03;;;12.20;99.90;;;;;;5051153;28;20444;-65
2021/10/19 09:40:31;;;;;;;13.40;10.50;;;12.20;99.90;;;;;;5051400;28;20458;-65
2021/10/19 09:43:03;;;;;;;12.60;10.20;;;12.30;99.90;;;;;;5051112;28;20444;-66
2021/10/19 09:45:30;;;;;;;11.90;9.20;;;12.50;99.90;;;;;;5050179;28;20550;-65
2021/10/19 09:47:57;;;;;;;10.40;9.27;;;12.60;99.90;;;;;;5050450;28;20451;-65
2021/10/19 09:50:27;;;;;;;11.57;9.50;;;12.70;99.90;;;;;;5050837;28;20443;-65
2021/10/19 09:52:56;;;;;;;12.10;10.03;;;12.90;99.90;;;;;;5050465;28;20480;-65
2021/10/19 09:55:23;;;;;;;10.73;9.60;;;13.00;99.90;;;;;;5050315;28;20463;-65
2021/10/19 09:57:52;;;;;;;14.90;11.67;;;13.10;99.90;;;;;;5050231;28;20961;-65
2021/10/19 10:00:21;;;;;;;10.70;8.97;;;13.20;99.90;;;;;;5050481;28;20459;-65
2021/10/19 10:02:49;;;;;;;9.70;7.53;;;13.30;99.90;;;;;;5050673;28;20436;-66
2021/10/19 10:05:16;;;;;;;6.93;5.83;;;13.40;99.90;;;;;;5050632;28;20475;-65
2021/10/19 10:07:45;;;;;;;9.40;6.20;;;13.60;99.90;;;;;;5049916;28;20444;-66
2021/10/19 10:10:16;;;;;;;7.10;6.00;;;13.70;99.90;;;;;;5050029;28;20452;-65
2021/10/19 10:12:45;;;;;;;7.90;6.13;;;13.90;99.90;;;;;;5050276;28;20487;-65
2021/10/19 10:15:23;;;;;;;8.20;5.70;;;14.10;99.90;;;;;;5050139;28;20484;-65
2021/10/19 10:17:52;;;;;;;5.87;5.13;;;14.30;99.90;;;;;;5049909;28;20975;-66
2021/10/19 10:20:19;;;;;;;6.30;5.50;;;14.60;99.90;;;;;;5050125;28;20447;-65
2021/10/19 10:22:46;;;;;;;5.40;4.90;;;14.70;99.90;;;;;;5050217;28;20450;-65
2021/10/19 10:25:18;;;;;;;7.90;5.00;;;14.90;99.90;;;;;;5049720;28;20869;-66
2021/10/19 10:27:45;;;;;;;6.83;5.30;;;15.00;99.90;;;;;;5049958;28;20935;-65
2021/10/19 10:30:20;;;;;;;5.77;4.53;;;15.10;99.90;;;;;;5049827;28;20455;-65
2021/10/19 10:32:47;;;;;;;6.57;3.83;;;15.20;99.90;;;;;;5049885;28;20483;-65
2021/10/19 10:35:16;;;;;;;6.73;3.80;;;15.40;99.90;;;;;;5049566;28;20985;-65
2021/10/19 10:37:47;;;;;;;4.80;3.73;;;15.50;99.90;;;;;;5049372;28;20535;-65
2021/10/19 10:40:28;;;;;;;4.97;3.57;;;15.60;99.90;;;;;;5049739;28;20450;-65
2021/10/19 10:42:56;;;;;;;5.70;4.80;;;15.60;99.90;;;;;;5049730;28;20957;-65
2021/10/19 10:45:28;;;;;;;8.00;4.27;;;15.70;99.90;;;;;;5049375;28;20869;-65
2021/10/19 10:47:57;;;;;;;5.60;4.43;;;15.70;99.90;;;;;;5049815;28;20441;-65
2021/10/19 10:50:24;;;;;;;7.93;6.13;;;15.70;99.90;;;;;;5049725;28;20497;-65
2021/10/19 10:52:58;;;;;;;5.67;4.10;;;15.70;99.90;;;;;;5049458;28;21025;-65
2021/10/19 10:55:27;;;;;;;5.63;4.30;;;15.60;99.90;;;;;;5049361;28;20473;-65
2021/10/19 10:57:54;;;;;;;4.50;4.00;;;15.50;99.90;;;;;;5049211;28;20807;-65
2021/10/19 11:00:26;;;;;;;6.60;4.30;;;15.40;99.90;;;;;;5049887;28;20451;-65
2021/10/19 11:03:11;;;;;;;5.97;5.37;;;15.40;99.90;;;;;;5049888;28;20436;-66
2021/10/19 11:05:49;;;;;;;6.13;4.93;;;15.40;99.90;;;;;;5050092;28;20447;-65
2021/10/19 11:08:21;;;;;;;7.53;4.40;;;15.30;99.90;;;;;;5049557;28;20464;-65
2021/10/19 11:10:52;;;;;;;7.93;5.37;;;15.20;99.90;;;;;;5050224;28;20451;-66
2021/10/19 11:13:19;;;;;;;5.20;4.37;;;15.10;99.90;;;;;;5049569;28;20486;-65
2021/10/19 11:15:52;;;;;;;8.03;5.50;;;15.00;99.90;;;;;;5049755;28;20450;-66
2021/10/19 11:18:20;;;;;;;6.83;4.77;;;14.90;99.90;;;;;;5049102;28;21095;-65
2021/10/19 11:20:55;;;;;;;10.57;5.07;;;15.00;99.90;;;;;;5049256;28;20542;-65
2021/10/19 11:23:22;;;;;;;7.73;4.90;;;15.00;99.90;;;;;;5049377;28;20444;-65
2021/10/19 11:25:51;;;;;;;8.70;5.10;;;15.10;99.90;;;;;;5049513;28;20484;-66
2021/10/19 11:28:18;;;;;;;7.03;6.10;;;15.20;99.90;;;;;;5049055;28;20798;-66
2021/10/19 11:30:45;;;;;;;6.73;4.83;;;15.20;99.90;;;;;;5049379;28;20443;-66
2021/10/19 11:33:12;;;;;;;7.20;5.87;;;15.20;99.90;;;;;;5048995;28;20866;-66
2021/10/19 11:35:39;;;;;;;9.90;5.03;;;15.20;99.90;;;;;;5049299;28;20448;-65
2021/10/19 11:38:06;;;;;;;8.37;5.80;;;15.40;99.90;;;;;;5049179;28;20589;-65
2021/10/19 11:40:33;;;;;;;6.77;5.50;;;15.40;99.90;;;;;;5049572;28;20447;-66
2021/10/19 11:43:02;;;;;;;7.77;5.53;;;15.50;99.90;;;;;;5049175;28;20444;-66
2021/10/19 11:45:30;;;;;;;5.40;4.50;;;15.70;99.90;;;;;;5049090;28;20487;-65
2021/10/19 11:47:59;;;;;;;8.27;5.40;;;16.00;99.90;;;;;;5048819;28;20448;-66
2021/10/19 11:50:28;;;;;;;8.13;5.40;;;16.20;99.90;;;;;;5049185;28;20814;-66
2021/10/19 11:52:56;;;;;;;8.40;5.20;;;16.40;99.90;;;;;;5049152;28;20480;-65
2021/10/19 11:55:23;;;;;;;6.10;5.17;;;16.60;99.90;;;;;;5049051;28;20976;-66
2021/10/19 11:57:52;;;;;;;7.70;6.03;;;16.70;99.90;;;;;;5048982;28;20452;-66
2021/10/19 12:00:22;;;;;;;7.10;5.60;;;16.90;99.90;;;;;;5048930;28;20824;-65
2021/10/19 12:02:56;;;;;;;5.07;4.57;;;17.00;99.90;;;;;;5049305;28;20448;-66
2021/10/19 12:05:24;;;;;;;7.83;5.97;;;16.80;99.90;;;;;;5049060;28;20464;-66
2021/10/19 12:07:52;;;;;;;6.23;4.70;;;16.80;99.90;;;;;;5049767;28;20956;-65
2021/10/19 12:10:22;;;;;;;5.00;4.50;;;16.80;99.90;;;;;;5052455;28;20978;-66
2021/10/19 12:12:54;;;;;;;7.30;5.07;;;16.70;99.90;;;;;;5052341;28;20447;-65
2021/10/19 12:15:24;;;;;;;6.20;4.40;;;16.70;99.90;;;;;;5052316;28;20459;-66
2021/10/19 12:17:59;;;;;;;6.80;4.57;;;16.70;99.90;;;;;;5051984;28;20830;-66
2021/10/19 12:20:28;;;;;;;6.93;4.50;;;16.60;99.90;;;;;;5051990;28;20451;-66
2021/10/19 12:23:00;;;;;;;6.53;4.33;;;16.50;99.90;;;;;;5052377;28;20574;-65
2021/10/19 12:25:34;;;;;;;6.00;4.70;;;16.40;99.90;;;;;;5052150;28;20507;-66
2021/10/19 12:28:00;;;;;;;7.10;5.63;;;16.40;99.90;;;;;;5052313;28;20439;-65
2021/10/19 12:30:36;;;;;;;6.73;5.87;;;16.40;99.90;;;;;;5051978;28;20450;-65
2021/10/19 12:33:20;;;;;;;9.63;5.70;;;16.40;99.90;;;;;;5052207;28;20466;-66
2021/10/19 12:36:06;;;;;;;6.90;6.03;;;16.40;99.90;;;;;;5051851;28;20564;-65
2021/10/19 12:38:35;;;;;;;8.07;5.83;;;16.50;99.90;;;;;;5051871;28;20910;-65
2021/10/19 12:41:10;;;;;;;7.93;6.03;;;16.60;99.90;;;;;;5051664;28;20451;-66
2021/10/19 12:43:38;;;;;;;7.30;5.57;;;16.60;99.90;;;;;;5051681;28;20471;-65